sensor_id;sensor_type;location;lat;lon;timestamp;P1;durP1;ratioP1;P2;durP2;ratioP2
19519;SDS011;9904;52.246;20.898;2022-09-29T00:02:18;36.17;;;15.27;;
19519;SDS011;9904;52.246;20.898;2022-09-29T00:04:44;31.20;;;14.97;;
19519;SDS011;9904;52.246;20.898;2022-09-29T00:07:11;30.87;;;14.83;;
19519;SDS011;9904;52.246;20.898;2022-09-29T00:09:37;31.33;;;14.20;;
19519;SDS011;9904;52.246;20.898;2022-09-29T00:12:04;24.87;;;12.67;;
19519;SDS011;9904;52.246;20.898;2022-09-29T00:14:30;27.50;;;12.63;;
19519;SDS011;9904;52.246;20.898;2022-09-29T00:16:57;22.23;;;12.37;;
19519;SDS011;9904;52.246;20.898;2022-09-29T00:19:23;22.97;;;12.50;;
19519;SDS011;9904;52.246;20.898;2022-09-29T00:21:50;25.07;;;12.63;;
19519;SDS011;9904;52.246;20.898;2022-09-29T00:24:17;21.93;;;11.77;;
19519;SDS011;9904;52.246;20.898;2022-09-29T00:26:44;21.63;;;12.37;;
19519;SDS011;9904;52.246;20.898;2022-09-29T00:29:11;25.43;;;13.50;;
19519;SDS011;9904;52.246;20.898;2022-09-29T00:31:38;28.30;;;13.70;;
19519;SDS011;9904;52.246;20.898;2022-09-29T00:34:04;23.37;;;13.47;;
19519;SDS011;9904;52.246;20.898;2022-09-29T00:36:31;28.03;;;14.93;;
19519;SDS011;9904;52.246;20.898;2022-09-29T00:38:58;29.13;;;14.53;;
19519;SDS011;9904;52.246;20.898;2022-09-29T00:41:25;30.33;;;15.00;;
19519;SDS011;9904;52.246;20.898;2022-09-29T00:43:58;30.90;;;14.70;;
19519;SDS011;9904;52.246;20.898;2022-09-29T00:46:45;26.10;;;15.10;;
19519;SDS011;9904;52.246;20.898;2022-09-29T00:49:18;28.30;;;14.83;;
19519;SDS011;9904;52.246;20.898;2022-09-29T00:51:55;28.27;;;14.93;;
19519;SDS011;9904;52.246;20.898;2022-09-29T00:54:25;25.73;;;13.90;;
19519;SDS011;9904;52.246;20.898;2022-09-29T00:56:55;31.00;;;13.97;;
19519;SDS011;9904;52.246;20.898;2022-09-29T00:59:31;27.10;;;14.83;;
19519;SDS011;9904;52.246;20.898;2022-09-29T01:02:03;25.77;;;14.53;;
19519;SDS011;9904;52.246;20.898;2022-09-29T01:04:31;29.83;;;15.27;;
19519;SDS011;9904;52.246;20.898;2022-09-29T01:06:57;29.87;;;14.97;;
19519;SDS011;9904;52.246;20.898;2022-09-29T01:09:26;27.10;;;13.93;;
19519;SDS011;9904;52.246;20.898;2022-09-29T01:11:55;27.57;;;14.43;;
19519;SDS011;9904;52.246;20.898;2022-09-29T01:14:25;26.80;;;15.07;;
19519;SDS011;9904;52.246;20.898;2022-09-29T01:16:53;23.93;;;14.67;;
19519;SDS011;9904;52.246;20.898;2022-09-29T01:19:27;28.60;;;14.80;;
19519;SDS011;9904;52.246;20.898;2022-09-29T01:22:18;24.83;;;14.13;;
19519;SDS011;9904;52.246;20.898;2022-09-29T01:31:37;30.20;;;14.93;;
19519;SDS011;9904;52.246;20.898;2022-09-29T01:34:53;29.77;;;15.37;;
19519;SDS011;9904;52.246;20.898;2022-09-29T01:40:47;31.93;;;16.27;;
19519;SDS011;9904;52.246;20.898;2022-09-29T01:43:23;26.83;;;14.97;;
19519;SDS011;9904;52.246;20.898;2022-09-29T01:45:56;29.50;;;16.20;;
19519;SDS011;9904;52.246;20.898;2022-09-29T01:48:29;29.47;;;15.97;;
19519;SDS011;9904;52.246;20.898;2022-09-29T01:51:00;30.33;;;15.90;;
19519;SDS011;9904;52.246;20.898;2022-09-29T01:53:37;33.67;;;16.53;;
19519;SDS011;9904;52.246;20.898;2022-09-29T01:56:11;31.77;;;16.17;;
19519;SDS011;9904;52.246;20.898;2022-09-29T01:58:42;35.30;;;15.73;;
19519;SDS011;9904;52.246;20.898;2022-09-29T02:01:14;30.67;;;16.67;;
19519;SDS011;9904;52.246;20.898;2022-09-29T02:04:04;32.60;;;16.27;;
19519;SDS011;9904;52.246;20.898;2022-09-29T02:06:32;30.00;;;15.83;;
19519;SDS011;9904;52.246;20.898;2022-09-29T02:09:04;29.43;;;15.27;;
19519;SDS011;9904;52.246;20.898;2022-09-29T02:11:34;29.37;;;15.57;;
19519;SDS011;9904;52.246;20.898;2022-09-29T02:16:40;30.20;;;16.30;;
19519;SDS011;9904;52.246;20.898;2022-09-29T02:19:12;27.70;;;14.97;;
19519;SDS011;9904;52.246;20.898;2022-09-29T02:21:42;26.67;;;14.50;;
19519;SDS011;9904;52.246;20.898;2022-09-29T02:24:12;28.77;;;14.87;;
19519;SDS011;9904;52.246;20.898;2022-09-29T02:26:38;26.07;;;13.87;;
19519;SDS011;9904;52.246;20.898;2022-09-29T02:29:06;29.17;;;13.93;;
19519;SDS011;9904;52.246;20.898;2022-09-29T02:31:33;26.90;;;14.20;;
19519;SDS011;9904;52.246;20.898;2022-09-29T02:34:01;28.20;;;15.20;;
19519;SDS011;9904;52.246;20.898;2022-09-29T02:39:04;28.97;;;14.57;;
19519;SDS011;9904;52.246;20.898;2022-09-29T02:44:24;34.50;;;15.77;;
19519;SDS011;9904;52.246;20.898;2022-09-29T02:47:14;29.87;;;14.93;;
19519;SDS011;9904;52.246;20.898;2022-09-29T02:55:19;31.13;;;16.10;;
19519;SDS011;9904;52.246;20.898;2022-09-29T02:57:55;29.80;;;16.53;;
19519;SDS011;9904;52.246;20.898;2022-09-29T03:00:40;30.57;;;15.40;;
19519;SDS011;9904;52.246;20.898;2022-09-29T03:03:08;27.23;;;15.83;;
19519;SDS011;9904;52.246;20.898;2022-09-29T03:05:34;29.70;;;16.70;;
19519;SDS011;9904;52.246;20.898;2022-09-29T03:08:00;26.33;;;15.53;;
19519;SDS011;9904;52.246;20.898;2022-09-29T03:10:28;36.53;;;17.80;;
19519;SDS011;9904;52.246;20.898;2022-09-29T03:12:55;29.87;;;16.43;;
19519;SDS011;9904;52.246;20.898;2022-09-29T03:15:22;27.93;;;17.00;;
19519;SDS011;9904;52.246;20.898;2022-09-29T03:17:48;24.77;;;16.13;;
19519;SDS011;9904;52.246;20.898;2022-09-29T03:20:15;27.67;;;16.90;;
19519;SDS011;9904;52.246;20.898;2022-09-29T03:22:42;22.97;;;15.47;;
19519;SDS011;9904;52.246;20.898;2022-09-29T03:25:08;24.10;;;15.20;;
19519;SDS011;9904;52.246;20.898;2022-09-29T03:27:35;24.73;;;14.87;;
19519;SDS011;9904;52.246;20.898;2022-09-29T03:30:03;22.33;;;14.40;;
19519;SDS011;9904;52.246;20.898;2022-09-29T03:32:30;22.33;;;14.93;;
19519;SDS011;9904;52.246;20.898;2022-09-29T03:34:56;24.70;;;15.10;;
19519;SDS011;9904;52.246;20.898;2022-09-29T03:37:23;23.03;;;14.90;;
19519;SDS011;9904;52.246;20.898;2022-09-29T03:39:49;29.83;;;14.97;;
19519;SDS011;9904;52.246;20.898;2022-09-29T03:42:16;26.43;;;15.47;;
19519;SDS011;9904;52.246;20.898;2022-09-29T03:44:43;26.53;;;14.20;;
19519;SDS011;9904;52.246;20.898;2022-09-29T03:47:09;26.50;;;15.07;;
19519;SDS011;9904;52.246;20.898;2022-09-29T03:49:35;20.83;;;13.93;;
19519;SDS011;9904;52.246;20.898;2022-09-29T03:52:03;22.17;;;14.13;;
19519;SDS011;9904;52.246;20.898;2022-09-29T03:54:29;23.80;;;14.53;;
19519;SDS011;9904;52.246;20.898;2022-09-29T03:56:56;22.57;;;14.07;;
19519;SDS011;9904;52.246;20.898;2022-09-29T03:59:22;22.23;;;13.83;;
19519;SDS011;9904;52.246;20.898;2022-09-29T04:01:49;25.37;;;13.97;;
19519;SDS011;9904;52.246;20.898;2022-09-29T04:04:15;23.03;;;14.13;;
19519;SDS011;9904;52.246;20.898;2022-09-29T04:06:42;21.13;;;13.73;;
19519;SDS011;9904;52.246;20.898;2022-09-29T04:09:08;23.83;;;13.57;;
19519;SDS011;9904;52.246;20.898;2022-09-29T04:11:35;23.57;;;14.57;;
19519;SDS011;9904;52.246;20.898;2022-09-29T04:14:01;24.20;;;13.77;;
19519;SDS011;9904;52.246;20.898;2022-09-29T04:16:29;22.73;;;14.53;;
19519;SDS011;9904;52.246;20.898;2022-09-29T04:18:56;23.67;;;13.90;;
19519;SDS011;9904;52.246;20.898;2022-09-29T04:21:22;24.00;;;14.33;;
19519;SDS011;9904;52.246;20.898;2022-09-29T04:23:49;25.30;;;15.30;;
19519;SDS011;9904;52.246;20.898;2022-09-29T04:26:15;24.53;;;14.80;;
19519;SDS011;9904;52.246;20.898;2022-09-29T04:28:42;24.50;;;14.60;;
19519;SDS011;9904;52.246;20.898;2022-09-29T04:31:09;22.67;;;14.20;;
19519;SDS011;9904;52.246;20.898;2022-09-29T04:33:35;28.33;;;14.80;;
19519;SDS011;9904;52.246;20.898;2022-09-29T04:36:04;28.53;;;14.93;;
19519;SDS011;9904;52.246;20.898;2022-09-29T04:38:31;28.37;;;15.17;;
19519;SDS011;9904;52.246;20.898;2022-09-29T04:40:57;25.10;;;14.83;;
19519;SDS011;9904;52.246;20.898;2022-09-29T04:43:24;24.60;;;14.90;;
19519;SDS011;9904;52.246;20.898;2022-09-29T04:45:51;24.17;;;14.07;;
19519;SDS011;9904;52.246;20.898;2022-09-29T04:48:18;26.13;;;15.30;;
19519;SDS011;9904;52.246;20.898;2022-09-29T04:50:44;27.50;;;15.33;;
19519;SDS011;9904;52.246;20.898;2022-09-29T04:53:11;27.63;;;15.47;;
19519;SDS011;9904;52.246;20.898;2022-09-29T04:55:39;24.70;;;14.77;;
19519;SDS011;9904;52.246;20.898;2022-09-29T04:58:06;23.37;;;14.33;;
19519;SDS011;9904;52.246;20.898;2022-09-29T05:00:33;24.67;;;14.83;;
19519;SDS011;9904;52.246;20.898;2022-09-29T05:03:00;23.67;;;14.67;;
19519;SDS011;9904;52.246;20.898;2022-09-29T05:05:26;25.77;;;15.27;;
19519;SDS011;9904;52.246;20.898;2022-09-29T05:07:53;27.97;;;15.97;;
19519;SDS011;9904;52.246;20.898;2022-09-29T05:10:20;29.87;;;16.87;;
19519;SDS011;9904;52.246;20.898;2022-09-29T05:12:47;29.30;;;15.80;;
19519;SDS011;9904;52.246;20.898;2022-09-29T05:15:18;28.40;;;16.30;;
19519;SDS011;9904;52.246;20.898;2022-09-29T05:17:51;29.20;;;16.10;;
19519;SDS011;9904;52.246;20.898;2022-09-29T05:20:18;30.90;;;16.53;;
19519;SDS011;9904;52.246;20.898;2022-09-29T05:22:45;28.43;;;15.90;;
19519;SDS011;9904;52.246;20.898;2022-09-29T05:25:11;26.40;;;16.03;;
19519;SDS011;9904;52.246;20.898;2022-09-29T05:27:37;36.97;;;16.57;;
19519;SDS011;9904;52.246;20.898;2022-09-29T05:30:04;24.47;;;14.80;;
19519;SDS011;9904;52.246;20.898;2022-09-29T05:32:31;27.73;;;15.33;;
19519;SDS011;9904;52.246;20.898;2022-09-29T05:34:58;30.13;;;16.20;;
19519;SDS011;9904;52.246;20.898;2022-09-29T05:37:24;29.50;;;16.40;;
19519;SDS011;9904;52.246;20.898;2022-09-29T05:39:51;25.63;;;14.87;;
19519;SDS011;9904;52.246;20.898;2022-09-29T05:42:18;27.10;;;13.70;;
19519;SDS011;9904;52.246;20.898;2022-09-29T05:44:45;26.17;;;14.40;;
19519;SDS011;9904;52.246;20.898;2022-09-29T05:47:12;33.70;;;16.00;;
19519;SDS011;9904;52.246;20.898;2022-09-29T05:49:38;25.33;;;14.67;;
19519;SDS011;9904;52.246;20.898;2022-09-29T05:52:05;27.77;;;15.13;;
19519;SDS011;9904;52.246;20.898;2022-09-29T05:54:32;25.77;;;14.17;;
19519;SDS011;9904;52.246;20.898;2022-09-29T05:56:58;27.80;;;13.83;;
19519;SDS011;9904;52.246;20.898;2022-09-29T05:59:25;27.43;;;14.87;;
19519;SDS011;9904;52.246;20.898;2022-09-29T06:01:51;26.37;;;14.07;;
19519;SDS011;9904;52.246;20.898;2022-09-29T06:04:18;24.90;;;13.23;;
19519;SDS011;9904;52.246;20.898;2022-09-29T06:06:44;24.23;;;14.43;;
19519;SDS011;9904;52.246;20.898;2022-09-29T06:09:13;27.33;;;15.00;;
19519;SDS011;9904;52.246;20.898;2022-09-29T06:11:40;30.23;;;14.80;;
19519;SDS011;9904;52.246;20.898;2022-09-29T06:14:07;25.60;;;14.13;;
19519;SDS011;9904;52.246;20.898;2022-09-29T06:16:33;26.00;;;14.57;;
19519;SDS011;9904;52.246;20.898;2022-09-29T06:19:00;28.07;;;15.47;;
19519;SDS011;9904;52.246;20.898;2022-09-29T06:21:30;26.13;;;15.80;;
19519;SDS011;9904;52.246;20.898;2022-09-29T06:23:57;25.57;;;15.20;;
19519;SDS011;9904;52.246;20.898;2022-09-29T06:26:24;24.90;;;15.60;;
19519;SDS011;9904;52.246;20.898;2022-09-29T06:28:52;26.13;;;15.83;;
19519;SDS011;9904;52.246;20.898;2022-09-29T06:31:20;26.27;;;16.10;;
19519;SDS011;9904;52.246;20.898;2022-09-29T06:33:48;27.33;;;15.70;;
19519;SDS011;9904;52.246;20.898;2022-09-29T06:36:16;29.50;;;16.10;;
19519;SDS011;9904;52.246;20.898;2022-09-29T06:39:04;29.27;;;16.50;;
19519;SDS011;9904;52.246;20.898;2022-09-29T06:41:31;32.93;;;17.43;;
19519;SDS011;9904;52.246;20.898;2022-09-29T06:43:57;26.43;;;15.63;;
19519;SDS011;9904;52.246;20.898;2022-09-29T06:46:24;26.53;;;15.40;;
19519;SDS011;9904;52.246;20.898;2022-09-29T06:48:52;26.77;;;16.10;;
19519;SDS011;9904;52.246;20.898;2022-09-29T06:51:20;25.40;;;15.17;;
19519;SDS011;9904;52.246;20.898;2022-09-29T06:53:51;23.03;;;14.30;;
19519;SDS011;9904;52.246;20.898;2022-09-29T06:56:28;25.87;;;14.73;;
19519;SDS011;9904;52.246;20.898;2022-09-29T06:58:55;22.50;;;14.10;;
19519;SDS011;9904;52.246;20.898;2022-09-29T07:01:21;25.27;;;14.77;;
19519;SDS011;9904;52.246;20.898;2022-09-29T07:03:48;22.53;;;13.83;;
19519;SDS011;9904;52.246;20.898;2022-09-29T07:06:15;24.10;;;13.60;;
19519;SDS011;9904;52.246;20.898;2022-09-29T07:08:45;33.33;;;13.70;;
19519;SDS011;9904;52.246;20.898;2022-09-29T07:11:12;22.40;;;13.67;;
19519;SDS011;9904;52.246;20.898;2022-09-29T07:13:39;20.23;;;12.83;;
19519;SDS011;9904;52.246;20.898;2022-09-29T07:16:05;24.03;;;13.50;;
19519;SDS011;9904;52.246;20.898;2022-09-29T07:18:33;21.20;;;12.97;;
19519;SDS011;9904;52.246;20.898;2022-09-29T07:21:00;23.00;;;13.50;;
19519;SDS011;9904;52.246;20.898;2022-09-29T07:23:28;21.13;;;13.67;;
19519;SDS011;9904;52.246;20.898;2022-09-29T07:25:54;23.83;;;12.90;;
19519;SDS011;9904;52.246;20.898;2022-09-29T07:28:21;22.23;;;13.97;;
19519;SDS011;9904;52.246;20.898;2022-09-29T07:31:01;20.90;;;13.17;;
19519;SDS011;9904;52.246;20.898;2022-09-29T07:33:39;24.13;;;13.90;;
19519;SDS011;9904;52.246;20.898;2022-09-29T07:36:05;25.43;;;14.03;;
19519;SDS011;9904;52.246;20.898;2022-09-29T07:38:33;19.47;;;12.43;;
19519;SDS011;9904;52.246;20.898;2022-09-29T07:41:00;20.70;;;12.43;;
19519;SDS011;9904;52.246;20.898;2022-09-29T07:43:28;19.57;;;12.30;;
19519;SDS011;9904;52.246;20.898;2022-09-29T07:45:55;20.23;;;11.97;;
19519;SDS011;9904;52.246;20.898;2022-09-29T07:48:22;18.03;;;11.43;;
19519;SDS011;9904;52.246;20.898;2022-09-29T07:51:01;19.00;;;12.50;;
19519;SDS011;9904;52.246;20.898;2022-09-29T07:53:41;18.57;;;11.83;;
19519;SDS011;9904;52.246;20.898;2022-09-29T07:56:11;16.63;;;10.80;;
19519;SDS011;9904;52.246;20.898;2022-09-29T07:58:39;19.10;;;11.67;;
19519;SDS011;9904;52.246;20.898;2022-09-29T08:01:08;17.50;;;10.43;;
19519;SDS011;9904;52.246;20.898;2022-09-29T08:03:39;17.40;;;10.53;;
19519;SDS011;9904;52.246;20.898;2022-09-29T08:06:07;16.30;;;9.53;;
19519;SDS011;9904;52.246;20.898;2022-09-29T08:08:36;13.53;;;9.87;;
19519;SDS011;9904;52.246;20.898;2022-09-29T08:11:09;15.30;;;9.40;;
19519;SDS011;9904;52.246;20.898;2022-09-29T08:13:50;12.83;;;9.10;;
19519;SDS011;9904;52.246;20.898;2022-09-29T08:16:21;12.57;;;8.77;;
19519;SDS011;9904;52.246;20.898;2022-09-29T08:18:48;14.40;;;8.63;;
19519;SDS011;9904;52.246;20.898;2022-09-29T08:21:15;15.30;;;9.80;;
19519;SDS011;9904;52.246;20.898;2022-09-29T08:23:42;16.87;;;9.47;;
19519;SDS011;9904;52.246;20.898;2022-09-29T08:26:13;14.27;;;9.87;;
19519;SDS011;9904;52.246;20.898;2022-09-29T08:28:41;15.70;;;10.03;;
19519;SDS011;9904;52.246;20.898;2022-09-29T08:31:09;15.13;;;10.27;;
19519;SDS011;9904;52.246;20.898;2022-09-29T08:33:37;12.77;;;9.10;;
19519;SDS011;9904;52.246;20.898;2022-09-29T08:36:04;14.97;;;9.57;;
19519;SDS011;9904;52.246;20.898;2022-09-29T08:38:49;10.63;;;8.33;;
19519;SDS011;9904;52.246;20.898;2022-09-29T08:43:57;11.57;;;8.03;;
19519;SDS011;9904;52.246;20.898;2022-09-29T08:46:33;11.13;;;7.63;;
19519;SDS011;9904;52.246;20.898;2022-09-29T08:49:05;10.97;;;7.60;;
19519;SDS011;9904;52.246;20.898;2022-09-29T08:51:39;13.37;;;8.60;;
19519;SDS011;9904;52.246;20.898;2022-09-29T08:54:21;12.67;;;7.83;;
19519;SDS011;9904;52.246;20.898;2022-09-29T08:57:05;11.10;;;8.00;;
19519;SDS011;9904;52.246;20.898;2022-09-29T08:59:32;10.37;;;7.33;;
19519;SDS011;9904;52.246;20.898;2022-09-29T09:02:02;13.13;;;8.63;;
19519;SDS011;9904;52.246;20.898;2022-09-29T09:04:45;12.40;;;7.80;;
19519;SDS011;9904;52.246;20.898;2022-09-29T09:07:33;10.80;;;7.43;;
19519;SDS011;9904;52.246;20.898;2022-09-29T09:10:29;14.00;;;7.93;;
19519;SDS011;9904;52.246;20.898;2022-09-29T09:13:16;12.93;;;8.10;;
19519;SDS011;9904;52.246;20.898;2022-09-29T09:18:54;10.97;;;7.87;;
19519;SDS011;9904;52.246;20.898;2022-09-29T09:21:39;12.07;;;7.97;;
19519;SDS011;9904;52.246;20.898;2022-09-29T09:27:03;14.47;;;8.27;;
19519;SDS011;9904;52.246;20.898;2022-09-29T09:29:36;12.70;;;9.07;;
19519;SDS011;9904;52.246;20.898;2022-09-29T09:32:12;11.70;;;8.13;;
19519;SDS011;9904;52.246;20.898;2022-09-29T09:34:50;12.37;;;8.50;;
19519;SDS011;9904;52.246;20.898;2022-09-29T09:37:45;11.43;;;8.20;;
19519;SDS011;9904;52.246;20.898;2022-09-29T09:40:22;20.30;;;9.03;;
19519;SDS011;9904;52.246;20.898;2022-09-29T09:43:02;11.70;;;8.57;;
19519;SDS011;9904;52.246;20.898;2022-09-29T09:45:35;13.07;;;9.17;;
19519;SDS011;9904;52.246;20.898;2022-09-29T09:48:27;13.43;;;9.27;;
19519;SDS011;9904;52.246;20.898;2022-09-29T09:50:58;12.13;;;8.67;;
19519;SDS011;9904;52.246;20.898;2022-09-29T09:54:01;11.83;;;8.50;;
19519;SDS011;9904;52.246;20.898;2022-09-29T09:57:06;12.17;;;8.23;;
19519;SDS011;9904;52.246;20.898;2022-09-29T09:59:22;12.97;;;9.47;;
19519;SDS011;9904;52.246;20.898;2022-09-29T10:01:56;14.23;;;9.87;;
19519;SDS011;9904;52.246;20.898;2022-09-29T10:04:23;11.40;;;8.80;;
19519;SDS011;9904;52.246;20.898;2022-09-29T10:06:51;12.47;;;8.97;;
19519;SDS011;9904;52.246;20.898;2022-09-29T10:09:18;11.80;;;8.93;;
19519;SDS011;9904;52.246;20.898;2022-09-29T10:11:45;16.03;;;9.70;;
19519;SDS011;9904;52.246;20.898;2022-09-29T10:14:18;12.67;;;8.60;;
19519;SDS011;9904;52.246;20.898;2022-09-29T10:16:57;12.37;;;8.80;;
19519;SDS011;9904;52.246;20.898;2022-09-29T10:22:19;15.00;;;9.27;;
19519;SDS011;9904;52.246;20.898;2022-09-29T10:24:51;15.03;;;10.33;;
19519;SDS011;9904;52.246;20.898;2022-09-29T10:27:31;14.00;;;10.03;;
19519;SDS011;9904;52.246;20.898;2022-09-29T10:29:57;14.27;;;10.60;;
19519;SDS011;9904;52.246;20.898;2022-09-29T10:32:26;13.77;;;10.37;;
19519;SDS011;9904;52.246;20.898;2022-09-29T10:35:04;15.90;;;10.50;;
19519;SDS011;9904;52.246;20.898;2022-09-29T10:37:35;17.30;;;11.93;;
19519;SDS011;9904;52.246;20.898;2022-09-29T10:42:46;26.03;;;12.53;;
19519;SDS011;9904;52.246;20.898;2022-09-29T10:45:20;19.50;;;12.33;;
19519;SDS011;9904;52.246;20.898;2022-09-29T10:50:27;19.63;;;13.43;;
19519;SDS011;9904;52.246;20.898;2022-09-29T10:53:15;18.33;;;12.37;;
19519;SDS011;9904;52.246;20.898;2022-09-29T10:55:49;18.90;;;13.07;;
19519;SDS011;9904;52.246;20.898;2022-09-29T10:58:19;21.90;;;13.13;;
19519;SDS011;9904;52.246;20.898;2022-09-29T11:01:13;23.50;;;13.40;;
19519;SDS011;9904;52.246;20.898;2022-09-29T11:06:27;24.70;;;14.17;;
19519;SDS011;9904;52.246;20.898;2022-09-29T11:11:24;19.60;;;12.93;;
19519;SDS011;9904;52.246;20.898;2022-09-29T11:13:54;19.50;;;13.50;;
19519;SDS011;9904;52.246;20.898;2022-09-29T11:16:31;18.60;;;12.97;;
19519;SDS011;9904;52.246;20.898;2022-09-29T11:19:09;17.27;;;12.27;;
19519;SDS011;9904;52.246;20.898;2022-09-29T11:26:46;17.00;;;12.93;;
19519;SDS011;9904;52.246;20.898;2022-09-29T11:29:26;18.80;;;13.70;;
19519;SDS011;9904;52.246;20.898;2022-09-29T11:32:04;21.30;;;12.97;;
19519;SDS011;9904;52.246;20.898;2022-09-29T11:35:01;17.77;;;12.40;;
19519;SDS011;9904;52.246;20.898;2022-09-29T11:40:42;15.87;;;12.03;;
19519;SDS011;9904;52.246;20.898;2022-09-29T11:43:19;18.23;;;12.37;;
19519;SDS011;9904;52.246;20.898;2022-09-29T11:48:34;15.63;;;11.00;;
19519;SDS011;9904;52.246;20.898;2022-09-29T11:51:16;14.60;;;10.40;;
19519;SDS011;9904;52.246;20.898;2022-09-29T11:53:52;13.30;;;9.40;;
19519;SDS011;9904;52.246;20.898;2022-09-29T12:02:24;12.40;;;8.37;;
19519;SDS011;9904;52.246;20.898;2022-09-29T12:08:00;11.90;;;9.07;;
19519;SDS011;9904;52.246;20.898;2022-09-29T12:10:36;13.47;;;9.73;;
19519;SDS011;9904;52.246;20.898;2022-09-29T12:13:14;13.07;;;10.10;;
19519;SDS011;9904;52.246;20.898;2022-09-29T12:16:21;16.73;;;10.87;;
19519;SDS011;9904;52.246;20.898;2022-09-29T12:18:55;13.97;;;10.70;;
19519;SDS011;9904;52.246;20.898;2022-09-29T12:21:27;15.33;;;10.87;;
19519;SDS011;9904;52.246;20.898;2022-09-29T12:23:57;16.13;;;11.13;;
19519;SDS011;9904;52.246;20.898;2022-09-29T12:26:26;20.30;;;12.03;;
19519;SDS011;9904;52.246;20.898;2022-09-29T12:28:55;16.57;;;12.20;;
19519;SDS011;9904;52.246;20.898;2022-09-29T12:31:32;16.57;;;11.60;;
19519;SDS011;9904;52.246;20.898;2022-09-29T12:34:04;16.80;;;10.83;;
19519;SDS011;9904;52.246;20.898;2022-09-29T12:44:56;14.23;;;10.00;;
19519;SDS011;9904;52.246;20.898;2022-09-29T12:47:41;13.10;;;9.77;;
19519;SDS011;9904;52.246;20.898;2022-09-29T12:50:17;14.90;;;9.63;;
19519;SDS011;9904;52.246;20.898;2022-09-29T12:52:48;14.30;;;10.43;;
19519;SDS011;9904;52.246;20.898;2022-09-29T12:55:30;12.70;;;9.93;;
19519;SDS011;9904;52.246;20.898;2022-09-29T12:58:18;14.00;;;10.30;;
19519;SDS011;9904;52.246;20.898;2022-09-29T13:00:49;14.40;;;10.07;;
19519;SDS011;9904;52.246;20.898;2022-09-29T13:03:32;14.67;;;9.70;;
19519;SDS011;9904;52.246;20.898;2022-09-29T13:06:26;18.93;;;9.97;;
19519;SDS011;9904;52.246;20.898;2022-09-29T13:17:51;12.80;;;9.40;;
19519;SDS011;9904;52.246;20.898;2022-09-29T13:20:39;14.10;;;10.37;;
19519;SDS011;9904;52.246;20.898;2022-09-29T13:23:27;11.97;;;9.50;;
19519;SDS011;9904;52.246;20.898;2022-09-29T13:26:13;14.77;;;9.63;;
19519;SDS011;9904;52.246;20.898;2022-09-29T13:29:13;15.27;;;9.87;;
19519;SDS011;9904;52.246;20.898;2022-09-29T13:31:42;14.23;;;9.80;;
19519;SDS011;9904;52.246;20.898;2022-09-29T13:37:06;14.57;;;9.73;;
19519;SDS011;9904;52.246;20.898;2022-09-29T13:39:38;13.57;;;8.80;;
19519;SDS011;9904;52.246;20.898;2022-09-29T13:47:50;13.67;;;9.90;;
19519;SDS011;9904;52.246;20.898;2022-09-29T13:58:23;12.43;;;9.37;;
19519;SDS011;9904;52.246;20.898;2022-09-29T14:00:53;15.30;;;9.73;;
19519;SDS011;9904;52.246;20.898;2022-09-29T14:03:23;14.37;;;9.57;;
19519;SDS011;9904;52.246;20.898;2022-09-29T14:09:05;12.90;;;9.67;;
19519;SDS011;9904;52.246;20.898;2022-09-29T14:14:33;13.53;;;9.60;;
19519;SDS011;9904;52.246;20.898;2022-09-29T14:17:46;11.83;;;8.70;;
19519;SDS011;9904;52.246;20.898;2022-09-29T14:27:36;10.73;;;7.80;;
19519;SDS011;9904;52.246;20.898;2022-09-29T14:32:38;11.43;;;8.20;;
19519;SDS011;9904;52.246;20.898;2022-09-29T14:35:18;10.57;;;8.30;;
19519;SDS011;9904;52.246;20.898;2022-09-29T14:40:36;11.77;;;7.97;;
19519;SDS011;9904;52.246;20.898;2022-09-29T14:43:09;10.90;;;8.27;;
19519;SDS011;9904;52.246;20.898;2022-09-29T14:45:54;11.03;;;7.80;;
19519;SDS011;9904;52.246;20.898;2022-09-29T14:52:23;11.47;;;7.20;;
19519;SDS011;9904;52.246;20.898;2022-09-29T15:03:52;12.83;;;8.10;;
19519;SDS011;9904;52.246;20.898;2022-09-29T15:06:23;10.67;;;7.30;;
19519;SDS011;9904;52.246;20.898;2022-09-29T15:27:57;12.83;;;8.20;;
19519;SDS011;9904;52.246;20.898;2022-09-29T15:30:26;13.07;;;7.80;;
19519;SDS011;9904;52.246;20.898;2022-09-29T15:33:01;12.47;;;8.83;;
19519;SDS011;9904;52.246;20.898;2022-09-29T15:35:51;14.70;;;9.10;;
19519;SDS011;9904;52.246;20.898;2022-09-29T15:40:57;11.53;;;7.93;;
19519;SDS011;9904;52.246;20.898;2022-09-29T15:43:26;10.63;;;8.10;;
19519;SDS011;9904;52.246;20.898;2022-09-29T15:45:54;11.50;;;8.17;;
19519;SDS011;9904;52.246;20.898;2022-09-29T15:48:38;10.37;;;7.77;;
19519;SDS011;9904;52.246;20.898;2022-09-29T15:51:04;12.27;;;8.27;;
19519;SDS011;9904;52.246;20.898;2022-09-29T15:53:42;11.83;;;8.37;;
19519;SDS011;9904;52.246;20.898;2022-09-29T15:56:09;13.70;;;9.27;;
19519;SDS011;9904;52.246;20.898;2022-09-29T15:58:41;14.33;;;8.63;;
19519;SDS011;9904;52.246;20.898;2022-09-29T16:01:11;14.70;;;9.27;;
19519;SDS011;9904;52.246;20.898;2022-09-29T16:03:49;17.47;;;10.10;;
19519;SDS011;9904;52.246;20.898;2022-09-29T16:06:32;13.10;;;9.10;;
19519;SDS011;9904;52.246;20.898;2022-09-29T16:09:05;16.47;;;10.53;;
19519;SDS011;9904;52.246;20.898;2022-09-29T16:11:38;15.13;;;10.07;;
19519;SDS011;9904;52.246;20.898;2022-09-29T16:14:06;15.83;;;9.93;;
19519;SDS011;9904;52.246;20.898;2022-09-29T16:16:41;14.87;;;10.60;;
19519;SDS011;9904;52.246;20.898;2022-09-29T16:19:19;16.93;;;10.93;;
19519;SDS011;9904;52.246;20.898;2022-09-29T16:21:52;15.23;;;10.73;;
19519;SDS011;9904;52.246;20.898;2022-09-29T16:24:26;15.90;;;11.00;;
19519;SDS011;9904;52.246;20.898;2022-09-29T16:26:56;17.67;;;11.60;;
19519;SDS011;9904;52.246;20.898;2022-09-29T16:29:25;16.07;;;10.70;;
19519;SDS011;9904;52.246;20.898;2022-09-29T16:31:53;18.83;;;10.30;;
19519;SDS011;9904;52.246;20.898;2022-09-29T16:36:47;22.07;;;11.20;;
19519;SDS011;9904;52.246;20.898;2022-09-29T16:39:18;17.77;;;11.63;;
19519;SDS011;9904;52.246;20.898;2022-09-29T16:41:50;21.60;;;11.70;;
19519;SDS011;9904;52.246;20.898;2022-09-29T16:44:23;19.53;;;13.00;;
19519;SDS011;9904;52.246;20.898;2022-09-29T16:46:55;18.77;;;12.73;;
19519;SDS011;9904;52.246;20.898;2022-09-29T16:49:33;17.73;;;11.33;;
19519;SDS011;9904;52.246;20.898;2022-09-29T16:52:11;20.67;;;11.93;;
19519;SDS011;9904;52.246;20.898;2022-09-29T16:54:43;23.10;;;12.13;;
19519;SDS011;9904;52.246;20.898;2022-09-29T16:59:49;27.17;;;15.40;;
19519;SDS011;9904;52.246;20.898;2022-09-29T17:02:18;23.20;;;14.30;;
19519;SDS011;9904;52.246;20.898;2022-09-29T17:04:45;22.03;;;13.60;;
19519;SDS011;9904;52.246;20.898;2022-09-29T17:07:13;22.33;;;14.30;;
19519;SDS011;9904;52.246;20.898;2022-09-29T17:09:47;23.10;;;14.20;;
19519;SDS011;9904;52.246;20.898;2022-09-29T17:12:26;25.00;;;14.23;;
19519;SDS011;9904;52.246;20.898;2022-09-29T17:14:54;22.83;;;13.93;;
19519;SDS011;9904;52.246;20.898;2022-09-29T17:17:27;22.43;;;14.57;;
19519;SDS011;9904;52.246;20.898;2022-09-29T17:19:54;22.60;;;14.17;;
19519;SDS011;9904;52.246;20.898;2022-09-29T17:22:29;33.10;;;16.77;;
19519;SDS011;9904;52.246;20.898;2022-09-29T17:24:57;30.97;;;14.97;;
19519;SDS011;9904;52.246;20.898;2022-09-29T17:27:24;21.47;;;14.60;;
19519;SDS011;9904;52.246;20.898;2022-09-29T17:30:11;30.87;;;16.53;;
19519;SDS011;9904;52.246;20.898;2022-09-29T17:32:43;25.97;;;16.40;;